LiveATC.Net - Listen to live air traffic control over the Internet!


ICAO: ENVA  IATA: TRD   Airport: Vaernes Airport
City: Trondheim
Country: Norway   Continent: Europe
ENVA METAR Weather: ENVA 250750Z 28015KT 9999 VCSH FEW012 SCT021 BKN041 09/05 Q1008 NOSIG RMK WIND 670FT 28018KT
ENVA Flight Activity (FlightAware)

ENVA Gnd/Twr/App
Feed Status: UP   Listeners: 0
Listen in your browser - HTML5 player (in browser, HTML5)
Click here to listen with your own player (launches your MP3 player)
ENVA Gnd/Twr/App Audio Archives
FacilityFrequency
Trondheim Approach118.600
Trondheim Ground121.600
Trondheim Tower119.400

NOTICE

Unauthorized use prohibited. See LiveATC.net Terms of Service


Find LiveATC Audio Streams


Airport/ARTCC Code

Frequency Search
(e.g., 124.400, 128.75)
Site-wide search
 


Browse LiveATC Feeds
Top 50 LiveATC Feeds
LiveATC Feed Map
Bad Weather Areas

LiveATC FAQ
Offer LiveATC feed
Contact LiveATC.net
Press Inquiries

LiveATC on iPhone
LiveATC on Android

Windows Phone
Windows 8/10

LiveATC Mobile
(Mobile browser)

ATC Audio Archives
Interesting Recordings

LiveATC Forums


Home Page
About LiveATC.net
Make a Donation
Terms of Use
Privacy Policy

Canadian Air Freqs

AIRMETs/SIGMETs

FAA Airport Status
Nat'l Airspace Status
Arrival Demand Charts


Server Software By:
Icecast.org
Liquidsoap